Time;durP1;ratioP1;P1;durP2;ratioP2;P2;SDS_P1;SDS_P2;PMS_P1;PMS_P2;Temp;Humidity;BMP_temperature;BMP_pressure;BME280_temperature;BME280_humidity;BME280_pressure;Samples;Min_cycle;Max_cycle;Signal;HPM_P1;HPM_P2
2024/01/30 00:00:31;;;;;;;11.30;8.40;;;23.50;49.60;;;;;;222247;1269;22516;-53
2024/01/30 00:05:58;;;;;;;11.00;7.80;;;23.40;50.10;;;;;;222012;1269;26323;-53
2024/01/30 00:11:04;;;;;;;11.90;7.80;;;23.40;49.60;;;;;;222106;1266;22650;-52
2024/01/30 00:16:19;;;;;;;11.00;7.70;;;23.20;49.90;;;;;;221996;1264;24183;-53
2024/01/30 00:21:25;;;;;;;11.60;8.50;;;23.20;49.90;;;;;;222023;1263;22668;-55
2024/01/30 00:26:29;;;;;;;12.30;8.20;;;23.00;50.30;;;;;;221941;1268;24197;-54
2024/01/30 00:31:34;;;;;;;9.60;7.60;;;23.00;50.20;;;;;;221771;1266;24203;-54
2024/01/30 00:36:43;;;;;;;11.00;7.60;;;23.10;50.00;;;;;;222207;1269;23978;-54
2024/01/30 00:41:47;;;;;;;8.90;8.00;;;23.10;49.80;;;;;;222993;1269;24243;-54
2024/01/30 00:46:51;;;;;;;9.40;7.70;;;23.30;49.40;;;;;;223365;1256;26281;-54
2024/01/30 00:51:57;;;;;;;10.60;7.40;;;23.40;49.50;;;;;;222500;1260;24173;-54
2024/01/30 00:57:01;;;;;;;9.90;7.70;;;23.60;48.90;;;;;;228060;1263;22518;-55
2024/01/30 01:02:06;;;;;;;10.00;7.20;;;23.70;48.60;;;;;;221900;1269;22515;-53
2024/01/30 01:07:11;;;;;;;9.10;8.10;;;23.70;48.60;;;;;;221906;1263;22525;-51
2024/01/30 01:12:16;;;;;;;9.50;7.60;;;23.60;48.80;;;;;;222044;1259;23081;-52
2024/01/30 01:17:21;;;;;;;11.00;7.60;;;23.60;49.30;;;;;;222113;1266;22528;-54
2024/01/30 01:22:25;;;;;;;9.80;8.00;;;23.50;49.40;;;;;;221901;1259;24333;-52
2024/01/30 01:27:31;;;;;;;9.00;8.00;;;23.40;49.80;;;;;;222122;1269;25359;-54
2024/01/30 01:32:38;;;;;;;9.10;7.50;;;23.40;49.40;;;;;;222004;1268;24253;-53
2024/01/30 01:37:43;;;;;;;9.00;7.20;;;23.40;49.60;;;;;;222091;1266;22761;-53
2024/01/30 01:42:52;;;;;;;9.20;7.10;;;23.30;49.50;;;;;;222440;1263;22547;-53
2024/01/30 01:47:56;;;;;;;8.00;7.20;;;23.20;50.00;;;;;;222069;1254;24384;-53
2024/01/30 01:53:06;;;;;;;9.40;7.40;;;23.10;50.20;;;;;;222025;1263;24233;-54
2024/01/30 01:58:12;;;;;;;8.20;7.10;;;23.00;50.10;;;;;;221937;1260;23163;-53
2024/01/30 02:03:21;;;;;;;8.00;6.90;;;23.00;49.80;;;;;;222353;1257;25322;-53
2024/01/30 02:08:26;;;;;;;10.00;7.60;;;22.90;49.90;;;;;;222264;1257;22629;-52
2024/01/30 02:13:31;;;;;;;8.70;7.20;;;23.10;49.50;;;;;;222001;1269;24183;-55
2024/01/30 02:18:35;;;;;;;7.30;6.40;;;23.20;49.50;;;;;;222207;1254;24482;-52
2024/01/30 02:23:41;;;;;;;7.40;6.60;;;23.20;49.90;;;;;;222221;1266;22514;-54
2024/01/30 02:28:45;;;;;;;8.70;6.90;;;23.50;49.00;;;;;;222273;1266;25312;-53
2024/01/30 02:33:50;;;;;;;9.00;6.60;;;23.60;48.60;;;;;;222118;1266;25241;-55
2024/01/30 02:38:54;;;;;;;7.50;6.40;;;23.50;48.80;;;;;;221766;1255;25141;-54
2024/01/30 02:43:58;;;;;;;8.00;6.70;;;23.60;48.50;;;;;;222741;1269;24131;-55
2024/01/30 02:49:02;;;;;;;8.70;6.60;;;23.60;48.90;;;;;;225870;1269;22553;-52
2024/01/30 02:54:07;;;;;;;7.80;6.80;;;23.60;48.30;;;;;;221854;1269;22567;-54
2024/01/30 02:59:11;;;;;;;7.50;6.10;;;23.50;49.00;;;;;;224516;1264;24565;-54
2024/01/30 03:04:15;;;;;;;8.00;6.70;;;23.50;48.60;;;;;;221689;1266;24230;-52
2024/01/30 03:09:19;;;;;;;8.40;7.00;;;23.40;48.80;;;;;;221985;1264;24161;-55
2024/01/30 03:14:23;;;;;;;7.70;6.70;;;23.30;49.30;;;;;;222185;1246;24349;-50
2024/01/30 03:19:27;;;;;;;7.60;6.20;;;23.20;49.60;;;;;;221764;1263;24203;-52
2024/01/30 03:24:32;;;;;;;6.60;5.90;;;23.00;49.10;;;;;;222007;1264;24197;-51
2024/01/30 03:29:36;;;;;;;8.30;6.10;;;23.00;49.40;;;;;;221868;1268;22603;-55
2024/01/30 03:34:40;;;;;;;7.10;5.90;;;23.10;49.00;;;;;;221936;1263;23738;-55
2024/01/30 03:39:45;;;;;;;7.90;6.10;;;23.20;48.80;;;;;;222228;1263;24193;-54
2024/01/30 03:44:53;;;;;;;6.90;5.90;;;23.40;48.40;;;;;;222037;1260;24199;-52
2024/01/30 03:49:57;;;;;;;7.80;6.30;;;23.40;48.50;;;;;;222046;1263;24567;-50
2024/01/30 03:55:01;;;;;;;7.30;6.00;;;23.50;48.30;;;;;;222104;1269;22537;-54
2024/01/30 04:00:06;;;;;;;7.40;6.50;;;23.60;48.20;;;;;;221955;1254;24214;-53
2024/01/30 04:05:20;;;;;;;8.20;6.10;;;23.60;48.20;;;;;;222169;1269;25470;-53
2024/01/30 04:10:25;;;;;;;6.80;6.00;;;23.60;48.10;;;;;;221943;1266;22520;-53
2024/01/30 04:15:30;;;;;;;6.50;5.80;;;23.60;47.90;;;;;;221994;1266;22730;-50
2024/01/30 04:20:34;;;;;;;7.30;5.70;;;23.50;49.10;;;;;;222036;1269;23817;-52
2024/01/30 04:25:38;;;;;;;6.50;5.80;;;23.50;48.60;;;;;;222218;1266;24224;-55
2024/01/30 04:30:43;;;;;;;7.30;6.30;;;23.50;48.50;;;;;;222032;1246;24203;-54
2024/01/30 04:35:47;;;;;;;6.10;5.50;;;23.40;48.50;;;;;;222240;1258;24216;-52
2024/01/30 04:40:52;;;;;;;8.80;6.70;;;23.40;48.60;;;;;;222046;1246;24266;-53
2024/01/30 04:45:56;;;;;;;6.20;5.60;;;23.30;48.80;;;;;;222169;1255;23921;-54
2024/01/30 04:51:03;;;;;;;7.60;5.90;;;23.20;48.80;;;;;;222180;1256;22520;-54
2024/01/30 04:56:07;;;;;;;8.70;6.20;;;23.00;49.10;;;;;;221122;1273;22533;-54
2024/01/30 05:01:16;;;;;;;7.30;5.80;;;23.00;49.20;;;;;;221190;1263;23816;-54
2024/01/30 05:06:27;;;;;;;5.90;5.30;;;23.00;48.70;;;;;;221042;1261;25236;-56
2024/01/30 05:11:36;;;;;;;8.20;5.70;;;22.90;49.10;;;;;;220989;1271;24357;-55
2024/01/30 05:16:42;;;;;;;6.40;5.80;;;23.20;48.60;;;;;;221981;1269;22764;-55
2024/01/30 05:21:46;;;;;;;6.70;6.00;;;23.20;48.20;;;;;;221837;1267;23326;-53
2024/01/30 05:26:51;;;;;;;7.00;6.00;;;23.30;49.50;;;;;;221605;1258;370799;-53
2024/01/30 05:31:55;;;;;;;7.60;6.10;;;23.30;49.10;;;;;;221770;1270;24324;-49
2024/01/30 05:36:59;;;;;;;7.70;6.30;;;23.30;48.20;;;;;;221786;1267;24219;-52
2024/01/30 05:42:05;;;;;;;6.60;5.90;;;23.10;48.70;;;;;;221941;1267;22609;-55
2024/01/30 05:47:10;;;;;;;6.80;5.90;;;23.00;49.40;;;;;;221993;1267;23145;-55
2024/01/30 05:52:15;;;;;;;7.80;6.10;;;23.00;49.00;;;;;;221577;1270;22532;-57
2024/01/30 05:57:19;;;;;;;7.40;5.50;;;22.90;49.20;;;;;;222093;1264;24285;-54
2024/01/30 06:02:24;;;;;;;7.40;5.80;;;22.90;49.20;;;;;;221911;1270;22770;-53
2024/01/30 06:07:28;;;;;;;7.30;6.00;;;22.80;49.20;;;;;;221663;1267;23817;-54
2024/01/30 06:12:38;;;;;;;6.80;5.90;;;22.80;49.60;;;;;;222125;1270;24199;-53
2024/01/30 06:17:43;;;;;;;9.20;5.90;;;22.70;49.30;;;;;;222571;1264;24350;-53
2024/01/30 06:22:47;;;;;;;8.60;5.80;;;22.80;49.30;;;;;;221896;1264;24206;-52
2024/01/30 06:27:52;;;;;;;5.80;5.20;;;22.80;49.10;;;;;;221775;1261;23895;-54
2024/01/30 06:32:56;;;;;;;7.70;5.50;;;22.70;48.90;;;;;;221979;1257;24199;-53
2024/01/30 06:38:02;;;;;;;5.80;5.20;;;22.70;49.20;;;;;;221840;1264;22523;-55
2024/01/30 06:43:07;;;;;;;8.00;6.20;;;22.80;49.70;;;;;;222274;1269;22580;-56
2024/01/30 06:48:12;;;;;;;8.00;5.80;;;23.00;48.80;;;;;;222176;1259;22570;-57
2024/01/30 06:53:16;;;;;;;9.50;5.70;;;23.20;49.20;;;;;;222136;1266;22517;-56
2024/01/30 06:58:21;;;;;;;8.30;6.40;;;23.30;49.60;;;;;;222188;1259;24431;-56
2024/01/30 07:03:26;;;;;;;11.80;5.60;;;23.20;49.60;;;;;;220772;1270;22520;-55
2024/01/30 07:08:31;;;;;;;9.40;5.90;;;23.20;49.70;;;;;;220710;1272;25678;-56
2024/01/30 07:13:35;;;;;;;10.50;6.50;;;23.20;49.90;;;;;;220869;1276;24433;-57
2024/01/30 07:18:41;;;;;;;12.00;6.20;;;23.20;50.20;;;;;;221044;1268;22691;-55
2024/01/30 07:23:47;;;;;;;10.90;5.90;;;23.20;49.70;;;;;;222042;1264;23272;-57
2024/01/30 07:28:51;;;;;;;9.50;7.00;;;23.20;50.20;;;;;;221886;1260;24308;-54
2024/01/30 07:33:57;;;;;;;12.50;5.90;;;23.10;50.30;;;;;;222214;1270;22543;-51
2024/01/30 07:39:01;;;;;;;10.30;6.50;;;23.00;50.10;;;;;;222104;1264;22556;-53
2024/01/30 07:44:06;;;;;;;10.50;5.80;;;23.00;50.00;;;;;;222508;1253;24360;-54
2024/01/30 07:49:11;;;;;;;26.50;6.80;;;22.90;50.10;;;;;;222405;1264;22730;-52
2024/01/30 07:54:16;;;;;;;16.00;6.40;;;22.80;50.60;;;;;;221802;1263;22881;-51
2024/01/30 07:59:24;;;;;;;15.30;6.60;;;22.80;49.60;;;;;;221895;1251;24178;-52
2024/01/30 08:04:29;;;;;;;13.60;6.50;;;22.80;49.60;;;;;;223221;1267;24437;-55
2024/01/30 08:09:34;;;;;;;14.10;7.10;;;22.70;49.60;;;;;;222887;1267;25336;-54
2024/01/30 08:14:39;;;;;;;10.30;6.30;;;22.70;49.70;;;;;;222621;1264;22514;-53
2024/01/30 08:19:43;;;;;;;10.40;6.60;;;22.60;49.80;;;;;;222151;1270;25923;-53
2024/01/30 08:24:48;;;;;;;7.70;6.80;;;22.60;49.70;;;;;;223549;1271;24202;-55
2024/01/30 08:29:53;;;;;;;7.20;6.40;;;22.60;49.50;;;;;;221651;1274;22535;-53
2024/01/30 08:34:58;;;;;;;9.90;6.00;;;22.60;49.80;;;;;;221060;1270;22567;-52
2024/01/30 08:40:04;;;;;;;10.30;6.40;;;22.60;49.40;;;;;;228161;1262;24203;-57
2024/01/30 08:45:11;;;;;;;11.20;6.50;;;22.70;49.20;;;;;;227657;1262;22481;-57
2024/01/30 08:50:16;;;;;;;8.10;6.00;;;22.70;48.30;;;;;;225939;1269;24199;-58
2024/01/30 08:55:21;;;;;;;10.20;6.10;;;22.80;48.20;;;;;;224823;1264;22540;-51
2024/01/30 09:00:26;;;;;;;9.00;6.90;;;22.90;48.70;;;;;;223529;1263;25423;-50
2024/01/30 09:05:31;;;;;;;7.10;5.80;;;23.10;47.90;;;;;;224085;1263;24289;-51
2024/01/30 09:10:37;;;;;;;6.40;5.50;;;23.10;48.10;;;;;;223621;1263;25740;-49
2024/01/30 09:15:42;;;;;;;8.80;5.80;;;23.10;48.20;;;;;;224009;1264;22458;-52
2024/01/30 09:20:47;;;;;;;11.80;6.30;;;23.10;48.20;;;;;;223600;1264;22523;-53
2024/01/30 09:25:52;;;;;;;8.90;6.00;;;23.10;48.00;;;;;;223327;1247;23924;-54
2024/01/30 09:30:57;;;;;;;7.90;6.70;;;23.20;47.90;;;;;;222877;1263;22590;-55
2024/01/30 09:36:03;;;;;;;7.20;5.40;;;23.30;47.60;;;;;;223099;1263;24206;-48
2024/01/30 09:41:13;;;;;;;9.50;5.90;;;23.20;47.80;;;;;;223033;1267;25246;-51
2024/01/30 09:46:20;;;;;;;11.20;7.50;;;23.20;48.30;;;;;;221918;1266;22587;-51
2024/01/30 09:51:26;;;;;;;7.20;6.30;;;23.20;48.60;;;;;;222777;1259;24417;-56
2024/01/30 09:56:31;;;;;;;7.10;5.70;;;23.20;48.20;;;;;;222377;1263;24231;-57
2024/01/30 10:01:36;;;;;;;8.40;5.60;;;23.30;47.70;;;;;;221655;1270;22531;-54
2024/01/30 10:06:41;;;;;;;7.90;5.50;;;23.20;48.10;;;;;;222033;1267;24238;-54
2024/01/30 10:11:47;;;;;;;9.40;5.90;;;23.20;47.80;;;;;;221841;1263;22519;-53
2024/01/30 10:16:51;;;;;;;7.00;5.50;;;23.20;48.20;;;;;;222369;1260;22529;-57
2024/01/30 10:21:56;;;;;;;8.80;5.60;;;23.20;47.50;;;;;;221801;1253;22524;-49
2024/01/30 10:27:02;;;;;;;6.60;5.20;;;23.20;47.10;;;;;;221720;1258;24274;-55
2024/01/30 10:32:07;;;;;;;6.20;5.30;;;23.30;46.80;;;;;;221897;1266;22520;-58
2024/01/30 10:37:15;;;;;;;6.70;5.30;;;23.30;47.20;;;;;;222298;1267;23071;-57
2024/01/30 10:42:23;;;;;;;7.00;5.00;;;23.40;47.20;;;;;;222246;1266;26550;-55
2024/01/30 10:47:28;;;;;;;6.10;5.10;;;23.40;46.70;;;;;;222158;1267;24150;-57
2024/01/30 10:52:33;;;;;;;5.70;5.00;;;23.40;46.60;;;;;;222374;1266;25356;-57
2024/01/30 10:57:39;;;;;;;7.20;4.60;;;23.40;46.60;;;;;;222222;1263;22537;-59
2024/01/30 11:02:46;;;;;;;6.70;5.40;;;23.50;46.30;;;;;;222383;1268;25367;-56
2024/01/30 11:07:50;;;;;;;6.10;4.50;;;23.60;46.20;;;;;;222577;1269;24427;-56
2024/01/30 11:12:55;;;;;;;6.20;4.80;;;23.60;46.50;;;;;;222354;1269;23720;-56
2024/01/30 11:18:01;;;;;;;5.40;4.50;;;23.50;46.50;;;;;;222309;1263;22857;-50
2024/01/30 11:23:07;;;;;;;5.60;4.90;;;23.40;46.70;;;;;;222628;1261;23005;-55
2024/01/30 11:28:16;;;;;;;5.10;4.50;;;23.40;46.50;;;;;;222264;1246;24245;-57
2024/01/30 11:33:32;;;;;;;7.30;4.70;;;23.50;46.00;;;;;;222061;1259;22537;-56
2024/01/30 11:38:38;;;;;;;6.00;4.50;;;23.60;45.70;;;;;;222288;1259;24378;-55
2024/01/30 11:43:54;;;;;;;4.80;4.00;;;23.60;46.10;;;;;;221994;1264;25383;-57
2024/01/30 11:49:00;;;;;;;6.00;4.00;;;23.70;45.70;;;;;;222039;1246;22653;-55
2024/01/30 11:54:05;;;;;;;4.70;4.10;;;23.70;45.50;;;;;;222112;1266;24235;-54
2024/01/30 11:59:10;;;;;;;4.70;4.20;;;23.70;45.70;;;;;;221969;1269;23003;-56
2024/01/30 12:04:15;;;;;;;4.30;3.90;;;23.70;45.40;;;;;;222187;1256;22573;-57
2024/01/30 12:09:20;;;;;;;5.10;4.50;;;23.70;45.40;;;;;;222237;1262;24224;-58
2024/01/30 12:14:25;;;;;;;4.30;3.70;;;23.60;45.40;;;;;;222338;1262;24193;-56
2024/01/30 12:19:29;;;;;;;5.30;4.20;;;23.30;45.70;;;;;;221980;1269;22523;-57
2024/01/30 12:24:35;;;;;;;4.70;3.80;;;23.40;45.60;;;;;;222060;1266;24237;-55
2024/01/30 12:29:42;;;;;;;4.30;3.80;;;23.60;45.30;;;;;;221989;1256;22523;-54
2024/01/30 12:34:46;;;;;;;5.10;3.90;;;23.70;45.10;;;;;;222151;1266;25233;-55
2024/01/30 12:40:06;;;;;;;5.50;3.80;;;23.80;44.80;;;;;;222093;1266;22675;-54
2024/01/30 12:45:11;;;;;;;4.70;3.90;;;23.90;44.70;;;;;;222719;1263;22529;-54
2024/01/30 12:50:17;;;;;;;5.40;3.70;;;23.90;44.40;;;;;;222217;1263;22516;-57
2024/01/30 12:55:21;;;;;;;4.00;3.60;;;24.00;44.80;;;;;;222222;1250;22534;-56
2024/01/30 13:00:26;;;;;;;4.40;3.90;;;24.00;44.40;;;;;;221869;1246;24199;-55
2024/01/30 13:05:31;;;;;;;4.20;3.30;;;23.90;44.40;;;;;;222065;1267;25623;-54
2024/01/30 13:10:36;;;;;;;4.30;3.70;;;23.80;44.60;;;;;;222034;1259;22633;-55
2024/01/30 13:15:41;;;;;;;5.40;3.90;;;23.70;44.70;;;;;;222143;1266;24149;-56
2024/01/30 13:20:46;;;;;;;4.10;3.70;;;23.60;45.10;;;;;;221878;1269;24231;-56
2024/01/30 13:25:51;;;;;;;3.50;3.20;;;23.30;45.40;;;;;;222641;1255;24244;-55
2024/01/30 13:30:55;;;;;;;5.30;3.60;;;23.20;45.70;;;;;;221871;1269;24263;-55
2024/01/30 13:36:00;;;;;;;3.70;3.20;;;23.10;46.00;;;;;;222124;1263;22543;-55
2024/01/30 13:41:06;;;;;;;4.00;3.50;;;23.00;45.90;;;;;;221841;1269;26804;-53
2024/01/30 13:46:12;;;;;;;4.20;3.50;;;23.10;45.80;;;;;;221921;1256;25597;-58
2024/01/30 13:51:17;;;;;;;3.90;3.60;;;23.00;45.80;;;;;;222114;1258;23899;-56
2024/01/30 13:56:22;;;;;;;4.90;3.80;;;23.00;45.50;;;;;;221880;1266;22580;-57
2024/01/30 14:01:27;;;;;;;3.50;3.10;;;23.00;45.30;;;;;;221974;1265;22559;-56
2024/01/30 14:06:32;;;;;;;5.00;3.30;;;22.90;45.30;;;;;;222125;1268;25284;-55
2024/01/30 14:11:36;;;;;;;4.20;3.00;;;22.90;45.30;;;;;;222071;1256;23977;-56
2024/01/30 14:16:41;;;;;;;3.60;3.30;;;22.90;45.30;;;;;;221968;1269;22526;-59
2024/01/30 14:21:46;;;;;;;3.50;3.20;;;22.90;45.10;;;;;;221838;1269;22514;-60
2024/01/30 14:26:51;;;;;;;3.50;3.20;;;22.70;45.60;;;;;;221914;1266;22521;-61
2024/01/30 14:31:57;;;;;;;4.40;3.50;;;22.60;45.70;;;;;;222081;1263;25453;-59
2024/01/30 14:37:01;;;;;;;3.80;3.50;;;22.60;45.90;;;;;;222057;1266;25467;-61
2024/01/30 14:42:07;;;;;;;4.40;3.80;;;22.50;45.90;;;;;;221749;1263;24327;-60
2024/01/30 14:47:13;;;;;;;3.60;3.30;;;22.50;45.60;;;;;;222343;1269;25698;-60
2024/01/30 14:52:17;;;;;;;3.70;3.40;;;22.50;45.80;;;;;;222244;1247;22559;-60
2024/01/30 14:57:22;;;;;;;6.10;3.60;;;22.40;45.80;;;;;;221847;1256;22666;-58
2024/01/30 15:02:30;;;;;;;6.70;4.50;;;22.40;46.20;;;;;;222021;1263;23943;-62
2024/01/30 15:07:34;;;;;;;4.80;3.80;;;22.40;46.30;;;;;;221920;1263;22520;-60
2024/01/30 15:12:43;;;;;;;4.90;3.80;;;22.40;46.40;;;;;;225167;1269;24193;-61
2024/01/30 15:17:48;;;;;;;4.50;4.10;;;22.50;45.90;;;;;;222274;1250;22465;-59
2024/01/30 15:22:52;;;;;;;5.90;4.20;;;22.40;45.90;;;;;;221944;1269;24200;-60
2024/01/30 15:27:57;;;;;;;4.30;3.60;;;22.40;46.00;;;;;;222588;1256;24196;-60
2024/01/30 15:33:01;;;;;;;5.60;4.10;;;22.20;46.00;;;;;;223295;1266;25520;-58
2024/01/30 15:38:08;;;;;;;4.50;3.80;;;22.20;46.00;;;;;;222898;1271;25328;-61
2024/01/30 15:43:13;;;;;;;4.20;3.80;;;22.20;46.00;;;;;;222269;1265;22517;-61
2024/01/30 15:48:19;;;;;;;5.10;3.60;;;22.10;46.10;;;;;;221921;1256;25455;-60
2024/01/30 15:53:26;;;;;;;6.70;4.20;;;22.10;46.10;;;;;;221975;1263;22524;-61
2024/01/30 15:58:31;;;;;;;5.00;4.10;;;22.00;46.10;;;;;;221626;1262;22544;-60
2024/01/30 16:03:36;;;;;;;6.40;3.70;;;22.00;46.10;;;;;;221860;1260;22526;-58
2024/01/30 16:08:41;;;;;;;4.20;3.80;;;22.10;46.50;;;;;;221823;1269;22559;-58
2024/01/30 16:13:47;;;;;;;5.10;4.00;;;22.20;49.00;;;;;;225672;1266;25413;-59
2024/01/30 16:18:51;;;;;;;5.50;4.80;;;22.40;50.20;;;;;;222684;1263;24186;-60
2024/01/30 16:23:56;;;;;;;6.80;4.10;;;22.40;49.50;;;;;;221989;1266;24137;-59
2024/01/30 16:29:01;;;;;;;6.20;4.50;;;22.40;49.30;;;;;;221619;1262;22537;-61
2024/01/30 16:34:06;;;;;;;10.60;5.00;;;22.20;49.40;;;;;;221841;1247;22623;-62
2024/01/30 16:39:10;;;;;;;6.70;5.00;;;22.20;48.80;;;;;;222267;1262;25403;-61
2024/01/30 16:44:15;;;;;;;10.30;5.40;;;22.20;48.60;;;;;;221804;1266;24238;-60
2024/01/30 16:49:20;;;;;;;8.00;5.90;;;22.10;48.70;;;;;;222018;1257;24240;-61
2024/01/30 16:54:25;;;;;;;8.60;6.00;;;22.10;48.60;;;;;;221427;1258;24197;-57
2024/01/30 16:59:29;;;;;;;10.40;6.10;;;22.50;47.90;;;;;;222831;1259;22631;-60
2024/01/30 17:04:34;;;;;;;8.60;6.50;;;23.00;47.20;;;;;;222324;1257;22731;-61
2024/01/30 17:09:38;;;;;;;9.00;6.90;;;23.20;47.00;;;;;;222071;1263;25290;-60
2024/01/30 17:14:43;;;;;;;9.30;5.60;;;23.30;46.70;;;;;;222069;1266;23776;-60
2024/01/30 17:19:51;;;;;;;8.40;5.50;;;23.40;46.30;;;;;;222338;1263;25277;-62
2024/01/30 17:24:56;;;;;;;6.10;5.50;;;23.20;46.60;;;;;;221911;1259;204242;-61
2024/01/30 17:30:04;;;;;;;8.80;5.80;;;23.20;47.60;;;;;;221773;1263;25806;-57
2024/01/30 17:35:08;;;;;;;8.20;5.70;;;23.10;47.70;;;;;;229762;1266;22283;-61
2024/01/30 17:40:13;;;;;;;14.10;5.40;;;23.20;47.50;;;;;;229578;1269;22201;-60
2024/01/30 17:45:17;;;;;;;8.30;5.00;;;23.20;47.80;;;;;;228569;1263;24361;-60
2024/01/30 17:50:26;;;;;;;10.20;6.60;;;23.20;47.40;;;;;;221978;1269;24183;-59
2024/01/30 17:55:31;;;;;;;8.40;6.10;;;23.10;47.80;;;;;;221992;1257;22755;-60
2024/01/30 18:00:35;;;;;;;12.30;5.90;;;23.00;47.40;;;;;;221955;1259;22520;-60
2024/01/30 18:05:39;;;;;;;10.50;6.80;;;22.80;48.10;;;;;;222066;1254;22759;-61
2024/01/30 18:10:44;;;;;;;16.10;6.90;;;22.80;48.10;;;;;;222515;1267;25592;-60
2024/01/30 18:15:51;;;;;;;10.20;6.50;;;22.70;47.80;;;;;;222509;1269;22544;-60
2024/01/30 18:20:56;;;;;;;7.90;5.80;;;22.70;47.70;;;;;;222010;1259;22528;-60
2024/01/30 18:26:01;;;;;;;10.30;6.80;;;22.80;48.00;;;;;;221925;1265;22642;-60
2024/01/30 18:31:06;;;;;;;15.40;7.60;;;22.80;47.50;;;;;;221940;1257;25011;-59
2024/01/30 18:36:10;;;;;;;20.90;10.10;;;23.00;47.20;;;;;;222153;1252;24203;-60
2024/01/30 18:41:16;;;;;;;16.60;8.70;;;23.20;49.00;;;;;;221949;1246;22513;-60
2024/01/30 18:46:23;;;;;;;12.70;8.20;;;23.40;50.30;;;;;;222136;1259;22523;-58
2024/01/30 18:51:28;;;;;;;67.20;11.50;;;23.40;49.20;;;;;;221854;1263;24183;-59
2024/01/30 18:56:33;;;;;;;16.80;7.90;;;23.30;48.60;;;;;;222885;1266;22534;-60
2024/01/30 19:01:39;;;;;;;14.80;7.90;;;23.10;48.70;;;;;;222271;1264;23355;-61
2024/01/30 19:06:44;;;;;;;17.30;8.30;;;23.00;48.50;;;;;;221947;1264;26701;-59
2024/01/30 19:11:52;;;;;;;15.60;9.30;;;23.00;48.20;;;;;;222346;1263;24250;-59
2024/01/30 19:16:57;;;;;;;17.20;8.30;;;23.10;48.40;;;;;;222040;1266;24745;-59
2024/01/30 19:22:01;;;;;;;14.20;7.50;;;23.10;50.20;;;;;;222008;1268;22700;-59
2024/01/30 19:27:07;;;;;;;14.50;7.70;;;23.20;49.60;;;;;;221936;1266;25431;-59
2024/01/30 19:32:12;;;;;;;15.40;8.00;;;23.20;48.80;;;;;;221820;1248;24344;-59
2024/01/30 19:37:24;;;;;;;15.90;8.10;;;23.10;49.00;;;;;;223302;1266;25503;-59
2024/01/30 19:42:30;;;;;;;14.10;7.80;;;23.00;48.80;;;;;;221765;1256;22523;-60
2024/01/30 19:47:36;;;;;;;13.40;8.10;;;22.90;49.20;;;;;;222049;1260;22978;-60
2024/01/30 19:52:43;;;;;;;22.00;8.50;;;23.00;49.80;;;;;;222544;1266;23965;-60
2024/01/30 19:57:48;;;;;;;16.20;8.10;;;23.00;49.60;;;;;;222023;1263;22523;-64
2024/01/30 20:02:52;;;;;;;11.00;8.80;;;22.80;50.10;;;;;;221996;1266;25444;-60
2024/01/30 20:07:57;;;;;;;12.60;7.90;;;22.80;50.00;;;;;;222158;1257;24214;-60
2024/01/30 20:13:02;;;;;;;14.20;7.60;;;22.80;50.70;;;;;;222001;1263;22559;-60
2024/01/30 20:18:08;;;;;;;14.20;7.70;;;22.80;50.80;;;;;;221846;1253;23893;-62
2024/01/30 20:23:12;;;;;;;11.00;7.30;;;22.80;50.60;;;;;;222049;1266;25210;-62
2024/01/30 20:28:17;;;;;;;12.60;7.70;;;22.60;50.70;;;;;;221643;1266;22560;-59
2024/01/30 20:33:21;;;;;;;11.60;7.40;;;22.60;50.70;;;;;;222220;1266;22522;-60
2024/01/30 20:38:26;;;;;;;11.00;7.40;;;22.60;50.60;;;;;;221835;1248;25601;-62
2024/01/30 20:43:31;;;;;;;11.60;7.50;;;22.40;50.60;;;;;;221891;1266;22521;-62
2024/01/30 20:48:36;;;;;;;16.40;7.10;;;22.40;50.50;;;;;;222469;1267;22636;-62
2024/01/30 20:53:43;;;;;;;12.50;6.70;;;22.50;50.80;;;;;;222248;1259;22518;-62
2024/01/30 20:58:48;;;;;;;10.30;6.70;;;22.80;50.00;;;;;;222130;1268;24199;-53
2024/01/30 21:03:54;;;;;;;11.80;6.90;;;23.00;49.50;;;;;;221935;1268;22758;-50
2024/01/30 21:08:58;;;;;;;10.50;6.40;;;23.10;49.20;;;;;;222142;1269;24565;-52
2024/01/30 21:14:04;;;;;;;15.90;7.60;;;23.10;49.10;;;;;;222194;1269;24264;-57
2024/01/30 21:19:09;;;;;;;11.70;7.50;;;23.20;54.80;;;;;;225574;1261;22586;-55
2024/01/30 21:24:14;;;;;;;12.20;7.50;;;23.40;52.70;;;;;;223566;1269;22595;-51
2024/01/30 21:29:21;;;;;;;12.50;7.00;;;23.40;51.30;;;;;;224806;1256;25323;-48
2024/01/30 21:34:26;;;;;;;9.70;6.90;;;23.30;51.10;;;;;;222744;1254;24202;-50
2024/01/30 21:39:31;;;;;;;14.40;7.30;;;23.10;51.20;;;;;;222965;1267;22546;-60
2024/01/30 21:44:35;;;;;;;13.80;6.40;;;23.10;51.00;;;;;;222017;1266;24288;-52
2024/01/30 21:49:40;;;;;;;12.10;6.90;;;23.10;50.90;;;;;;223385;1269;24102;-51
2024/01/30 21:54:46;;;;;;;17.90;7.00;;;23.30;50.50;;;;;;221636;1263;26236;-60
2024/01/30 21:59:50;;;;;;;11.70;7.10;;;22.90;51.10;;;;;;222066;1266;22525;-60
2024/01/30 22:04:58;;;;;;;13.10;7.20;;;23.00;51.10;;;;;;222009;1264;22904;-61
2024/01/30 22:10:04;;;;;;;10.10;6.80;;;23.30;50.50;;;;;;222065;1269;22516;-53
2024/01/30 22:15:10;;;;;;;9.90;6.10;;;23.20;50.70;;;;;;223818;1262;22555;-56
2024/01/30 22:20:18;;;;;;;8.80;6.90;;;23.30;50.20;;;;;;225600;1267;22546;-53
2024/01/30 22:25:28;;;;;;;10.40;6.50;;;23.40;50.00;;;;;;228795;1260;22251;-56
2024/01/30 22:30:56;;;;;;;11.60;6.70;;;23.50;49.60;;;;;;228684;1264;24164;-50
2024/01/30 22:36:01;;;;;;;8.70;6.60;;;23.50;49.50;;;;;;224929;1268;26602;-60
2024/01/30 22:41:06;;;;;;;11.20;7.00;;;23.60;49.70;;;;;;222114;1263;22649;-59
2024/01/30 22:46:11;;;;;;;8.60;5.90;;;23.60;50.30;;;;;;222348;1247;24227;-60
2024/01/30 22:51:16;;;;;;;8.90;6.40;;;23.50;50.00;;;;;;222025;1268;24193;-49
2024/01/30 22:56:20;;;;;;;7.90;6.90;;;23.40;50.60;;;;;;222398;1269;23911;-53
2024/01/30 23:01:27;;;;;;;16.50;7.70;;;23.40;50.80;;;;;;222126;1269;24761;-53
2024/01/30 23:06:32;;;;;;;9.20;6.80;;;23.20;51.00;;;;;;222127;1269;24205;-54
2024/01/30 23:11:37;;;;;;;10.60;6.90;;;23.10;53.00;;;;;;221552;1269;25007;-60
2024/01/30 23:16:42;;;;;;;9.80;6.30;;;23.20;52.00;;;;;;222560;1269;25346;-59
2024/01/30 23:21:46;;;;;;;14.40;7.30;;;23.30;52.30;;;;;;221873;1269;24206;-60
2024/01/30 23:26:50;;;;;;;10.40;7.30;;;23.30;52.20;;;;;;222294;1261;24187;-52
2024/01/30 23:31:54;;;;;;;8.90;6.70;;;23.30;52.20;;;;;;222075;1255;23501;-52
2024/01/30 23:36:59;;;;;;;9.30;6.70;;;23.00;52.50;;;;;;222245;1269;24203;-51
2024/01/30 23:42:03;;;;;;;9.70;7.20;;;23.10;52.90;;;;;;222255;1267;22543;-53
2024/01/30 23:47:07;;;;;;;11.70;7.00;;;23.30;52.40;;;;;;222123;1269;22538;-49
2024/01/30 23:52:11;;;;;;;13.30;7.20;;;23.40;52.30;;;;;;221875;1269;26683;-48
2024/01/30 23:57:16;;;;;;;9.00;7.00;;;23.60;52.90;;;;;;221926;1258;22537;-50
